Main page
METAR-TAF:

METAR-TAF

Airports :

Governor Francisco Gabrielli International Airport

Mendoza, Argentina

latitude: 32-50S, longitude: 068-47W, elevation: 705 m

Current weather observation

The report was made 55 minutes ago, at 18:00 UTC
Wind 4 kt from the North
Temperature 20°C
Humidity 37%
Pressure 1012 hPa
Visibility 10 km or more
no clouds below 1500 m and no cumulonimbus

METAR: SAME 281800Z 36004KT CAVOK 20/05 Q1012

Time: 15:55 (18:55 UTC)

Forecast

The report was made 1 hour and 55 minutes ago, at 17:00 UTC
Forecast valid from 28 at 18 UTC to 29 at 18 UTC
Wind 5 kt from the East
Visibility 10 km or more
no clouds below 1500 m and no cumulonimbus
Becoming
from 29 at 00 UTC to 29 at 02 UTC
Wind 10 kt from the South
Visibility 10 km or more
Few clouds at a height of 4000 ft
Scattered clouds at a height of 10000 ft

TAF: SAME 281700Z 2818/2918 09005KT CAVOK TX21/2820Z TN05/2910Z BECMG 2900/2902 18010KT 9999 FEW040 SCT100

Weather observations and forecasts of more than 4000 airports (METAR and TAF reports).

The available stations are represented by yellow and red dots on the map.

Hover mouse over dot to see the name of the station.

Then click to see weather observations and forecasts.

To change the map : click on the green buttons with a black cross to zoom in, on the green button with a dash to zoom out, or on the green arrows for adjacent maps.


METAR-TAF: